sensor_id;sensor_type;location;lat;lon;timestamp;P1;durP1;ratioP1;P2;durP2;ratioP2
42768;SDS011;28423;60.010;30.406;2022-08-11T00:00:33;13.93;;;5.00;;
42768;SDS011;28423;60.010;30.406;2022-08-11T00:03:08;8.13;;;4.25;;
42768;SDS011;28423;60.010;30.406;2022-08-11T00:05:43;10.35;;;4.90;;
42768;SDS011;28423;60.010;30.406;2022-08-11T00:08:10;12.48;;;4.20;;
42768;SDS011;28423;60.010;30.406;2022-08-11T00:10:52;11.77;;;3.90;;
42768;SDS011;28423;60.010;30.406;2022-08-11T00:13:42;11.38;;;4.20;;
42768;SDS011;28423;60.010;30.406;2022-08-11T00:16:19;9.52;;;4.13;;
42768;SDS011;28423;60.010;30.406;2022-08-11T00:18:48;10.35;;;3.80;;
42768;SDS011;28423;60.010;30.406;2022-08-11T00:21:15;13.43;;;4.25;;
42768;SDS011;28423;60.010;30.406;2022-08-11T00:23:43;9.27;;;3.55;;
42768;SDS011;28423;60.010;30.406;2022-08-11T00:26:11;6.53;;;3.22;;
42768;SDS011;28423;60.010;30.406;2022-08-11T00:28:38;18.77;;;3.72;;
42768;SDS011;28423;60.010;30.406;2022-08-11T00:31:05;9.63;;;3.85;;
42768;SDS011;28423;60.010;30.406;2022-08-11T00:33:38;10.18;;;3.92;;
42768;SDS011;28423;60.010;30.406;2022-08-11T00:36:07;9.27;;;3.75;;
42768;SDS011;28423;60.010;30.406;2022-08-11T00:38:34;9.98;;;3.63;;
42768;SDS011;28423;60.010;30.406;2022-08-11T00:41:17;8.85;;;3.58;;
42768;SDS011;28423;60.010;30.406;2022-08-11T00:49:44;11.77;;;4.53;;
42768;SDS011;28423;60.010;30.406;2022-08-11T01:03:51;8.50;;;3.60;;
42768;SDS011;28423;60.010;30.406;2022-08-11T01:12:25;8.45;;;3.65;;
42768;SDS011;28423;60.010;30.406;2022-08-11T01:22:45;10.20;;;3.47;;
42768;SDS011;28423;60.010;30.406;2022-08-11T01:36:36;9.13;;;3.50;;
42768;SDS011;28423;60.010;30.406;2022-08-11T01:42:04;9.10;;;4.00;;
42768;SDS011;28423;60.010;30.406;2022-08-11T01:56:11;14.48;;;4.03;;
42768;SDS011;28423;60.010;30.406;2022-08-11T02:10:57;10.63;;;4.40;;
42768;SDS011;28423;60.010;30.406;2022-08-11T02:19:25;12.93;;;5.10;;
42768;SDS011;28423;60.010;30.406;2022-08-11T02:22:41;15.95;;;4.30;;
42768;SDS011;28423;60.010;30.406;2022-08-11T02:28:12;12.80;;;4.45;;
42768;SDS011;28423;60.010;30.406;2022-08-11T02:31:06;14.07;;;3.92;;
42768;SDS011;28423;60.010;30.406;2022-08-11T02:36:52;18.02;;;7.97;;
42768;SDS011;28423;60.010;30.406;2022-08-11T02:39:21;12.45;;;5.50;;
42768;SDS011;28423;60.010;30.406;2022-08-11T02:41:54;9.10;;;4.07;;
42768;SDS011;28423;60.010;30.406;2022-08-11T02:44:50;9.50;;;4.03;;
42768;SDS011;28423;60.010;30.406;2022-08-11T02:50:46;12.75;;;4.53;;
42768;SDS011;28423;60.010;30.406;2022-08-11T02:53:46;8.27;;;4.32;;
42768;SDS011;28423;60.010;30.406;2022-08-11T02:56:30;9.52;;;4.50;;
42768;SDS011;28423;60.010;30.406;2022-08-11T03:01:59;10.05;;;4.30;;
42768;SDS011;28423;60.010;30.406;2022-08-11T03:04:37;11.45;;;3.42;;
42768;SDS011;28423;60.010;30.406;2022-08-11T03:07:20;8.13;;;4.22;;
42768;SDS011;28423;60.010;30.406;2022-08-11T03:09:54;10.18;;;4.15;;
42768;SDS011;28423;60.010;30.406;2022-08-11T03:12:29;9.18;;;5.00;;
42768;SDS011;28423;60.010;30.406;2022-08-11T03:19:10;9.48;;;4.40;;
42768;SDS011;28423;60.010;30.406;2022-08-11T03:24:59;17.05;;;4.10;;
42768;SDS011;28423;60.010;30.406;2022-08-11T03:49:48;7.68;;;4.43;;
42768;SDS011;28423;60.010;30.406;2022-08-11T03:52:26;9.45;;;4.38;;
42768;SDS011;28423;60.010;30.406;2022-08-11T03:54:57;12.15;;;5.82;;
42768;SDS011;28423;60.010;30.406;2022-08-11T03:57:47;9.52;;;4.32;;
42768;SDS011;28423;60.010;30.406;2022-08-11T04:06:09;12.40;;;4.18;;
42768;SDS011;28423;60.010;30.406;2022-08-11T04:11:50;10.60;;;3.83;;
42768;SDS011;28423;60.010;30.406;2022-08-11T04:31:05;6.78;;;3.33;;
42768;SDS011;28423;60.010;30.406;2022-08-11T05:00:55;7.85;;;3.70;;
42768;SDS011;28423;60.010;30.406;2022-08-11T05:11:30;11.70;;;3.42;;
42768;SDS011;28423;60.010;30.406;2022-08-11T05:16:58;5.80;;;2.83;;
42768;SDS011;28423;60.010;30.406;2022-08-11T05:19:44;8.60;;;2.90;;
42768;SDS011;28423;60.010;30.406;2022-08-11T05:22:29;5.85;;;2.60;;
42768;SDS011;28423;60.010;30.406;2022-08-11T05:25:16;7.82;;;2.78;;
42768;SDS011;28423;60.010;30.406;2022-08-11T05:28:11;7.78;;;2.17;;
42768;SDS011;28423;60.010;30.406;2022-08-11T05:31:11;3.80;;;2.25;;
42768;SDS011;28423;60.010;30.406;2022-08-11T05:36:50;3.63;;;2.00;;
42768;SDS011;28423;60.010;30.406;2022-08-11T05:39:29;5.80;;;1.88;;
42768;SDS011;28423;60.010;30.406;2022-08-11T05:42:15;7.85;;;2.35;;
42768;SDS011;28423;60.010;30.406;2022-08-11T05:45:00;6.15;;;1.95;;
42768;SDS011;28423;60.010;30.406;2022-08-11T05:47:48;7.50;;;2.03;;
42768;SDS011;28423;60.010;30.406;2022-08-11T05:50:33;6.32;;;1.67;;
42768;SDS011;28423;60.010;30.406;2022-08-11T05:53:17;7.13;;;3.08;;
42768;SDS011;28423;60.010;30.406;2022-08-11T05:56:03;6.53;;;2.38;;
42768;SDS011;28423;60.010;30.406;2022-08-11T05:58:46;5.07;;;1.70;;
42768;SDS011;28423;60.010;30.406;2022-08-11T06:01:24;6.45;;;1.58;;
42768;SDS011;28423;60.010;30.406;2022-08-11T06:03:52;10.32;;;4.32;;
42768;SDS011;28423;60.010;30.406;2022-08-11T06:06:38;7.35;;;1.55;;
42768;SDS011;28423;60.010;30.406;2022-08-11T06:09:10;3.67;;;1.60;;
42768;SDS011;28423;60.010;30.406;2022-08-11T06:11:38;3.03;;;1.70;;
42768;SDS011;28423;60.010;30.406;2022-08-11T06:14:06;2.55;;;2.05;;
42768;SDS011;28423;60.010;30.406;2022-08-11T06:16:35;3.92;;;1.70;;
42768;SDS011;28423;60.010;30.406;2022-08-11T06:19:00;2.63;;;1.48;;
42768;SDS011;28423;60.010;30.406;2022-08-11T06:21:26;7.13;;;1.88;;
42768;SDS011;28423;60.010;30.406;2022-08-11T06:23:52;5.80;;;1.88;;
42768;SDS011;28423;60.010;30.406;2022-08-11T06:26:18;3.40;;;1.95;;
42768;SDS011;28423;60.010;30.406;2022-08-11T06:28:44;4.50;;;1.60;;
42768;SDS011;28423;60.010;30.406;2022-08-11T06:31:18;10.60;;;1.52;;
42768;SDS011;28423;60.010;30.406;2022-08-11T06:33:55;8.45;;;1.90;;
42768;SDS011;28423;60.010;30.406;2022-08-11T06:36:40;4.47;;;1.73;;
42768;SDS011;28423;60.010;30.406;2022-08-11T06:42:12;3.85;;;1.90;;
42768;SDS011;28423;60.010;30.406;2022-08-11T06:47:29;6.80;;;1.88;;
42768;SDS011;28423;60.010;30.406;2022-08-11T06:49:55;4.72;;;1.90;;
42768;SDS011;28423;60.010;30.406;2022-08-11T06:52:40;3.95;;;1.83;;
42768;SDS011;28423;60.010;30.406;2022-08-11T06:57:36;3.72;;;1.60;;
42768;SDS011;28423;60.010;30.406;2022-08-11T07:00:22;4.45;;;1.63;;
42768;SDS011;28423;60.010;30.406;2022-08-11T07:03:10;3.40;;;1.83;;
42768;SDS011;28423;60.010;30.406;2022-08-11T07:05:50;4.80;;;1.67;;
42768;SDS011;28423;60.010;30.406;2022-08-11T07:14:18;3.60;;;1.65;;
42768;SDS011;28423;60.010;30.406;2022-08-11T07:17:10;6.40;;;2.97;;
42768;SDS011;28423;60.010;30.406;2022-08-11T07:19:48;6.10;;;1.90;;
42768;SDS011;28423;60.010;30.406;2022-08-11T07:22:34;5.25;;;1.40;;
42768;SDS011;28423;60.010;30.406;2022-08-11T07:25:19;4.50;;;1.40;;
42768;SDS011;28423;60.010;30.406;2022-08-11T07:28:13;4.65;;;1.55;;
42768;SDS011;28423;60.010;30.406;2022-08-11T07:31:06;4.07;;;1.40;;
42768;SDS011;28423;60.010;30.406;2022-08-11T07:33:47;5.20;;;1.63;;
42768;SDS011;28423;60.010;30.406;2022-08-11T07:36:15;4.03;;;1.92;;
42768;SDS011;28423;60.010;30.406;2022-08-11T07:38:46;4.90;;;1.80;;
42768;SDS011;28423;60.010;30.406;2022-08-11T07:41:19;3.92;;;1.42;;
42768;SDS011;28423;60.010;30.406;2022-08-11T07:43:47;4.80;;;1.10;;
42768;SDS011;28423;60.010;30.406;2022-08-11T07:46:15;8.43;;;2.03;;
42768;SDS011;28423;60.010;30.406;2022-08-11T07:49:00;2.10;;;1.20;;
42768;SDS011;28423;60.010;30.406;2022-08-11T07:51:46;4.15;;;1.75;;
42768;SDS011;28423;60.010;30.406;2022-08-11T07:54:31;8.88;;;2.08;;
42768;SDS011;28423;60.010;30.406;2022-08-11T07:56:57;4.15;;;1.55;;
42768;SDS011;28423;60.010;30.406;2022-08-11T07:59:23;3.90;;;1.15;;
42768;SDS011;28423;60.010;30.406;2022-08-11T08:02:09;2.88;;;1.50;;
42768;SDS011;28423;60.010;30.406;2022-08-11T08:04:55;7.78;;;1.48;;
42768;SDS011;28423;60.010;30.406;2022-08-11T08:07:40;4.28;;;1.67;;
42768;SDS011;28423;60.010;30.406;2022-08-11T08:10:24;7.88;;;1.30;;
42768;SDS011;28423;60.010;30.406;2022-08-11T08:13:08;4.53;;;1.50;;
42768;SDS011;28423;60.010;30.406;2022-08-11T08:15:53;5.03;;;1.50;;
42768;SDS011;28423;60.010;30.406;2022-08-11T08:18:37;8.55;;;2.72;;
42768;SDS011;28423;60.010;30.406;2022-08-11T08:21:03;8.20;;;1.88;;
42768;SDS011;28423;60.010;30.406;2022-08-11T08:23:37;10.05;;;2.25;;
42768;SDS011;28423;60.010;30.406;2022-08-11T08:26:08;5.38;;;1.42;;
42768;SDS011;28423;60.010;30.406;2022-08-11T08:28:54;3.58;;;1.58;;
42768;SDS011;28423;60.010;30.406;2022-08-11T08:31:41;4.32;;;2.38;;
42768;SDS011;28423;60.010;30.406;2022-08-11T08:34:07;5.85;;;1.95;;
42768;SDS011;28423;60.010;30.406;2022-08-11T08:36:34;8.73;;;1.80;;
42768;SDS011;28423;60.010;30.406;2022-08-11T08:38:59;6.68;;;1.60;;
42768;SDS011;28423;60.010;30.406;2022-08-11T08:41:29;7.40;;;2.05;;
42768;SDS011;28423;60.010;30.406;2022-08-11T08:43:57;8.38;;;1.92;;
42768;SDS011;28423;60.010;30.406;2022-08-11T08:46:29;6.75;;;2.00;;
42768;SDS011;28423;60.010;30.406;2022-08-11T08:48:59;6.13;;;1.80;;
42768;SDS011;28423;60.010;30.406;2022-08-11T08:51:26;5.43;;;1.40;;
42768;SDS011;28423;60.010;30.406;2022-08-11T08:54:03;4.28;;;2.00;;
42768;SDS011;28423;60.010;30.406;2022-08-11T08:56:30;4.13;;;2.15;;
42768;SDS011;28423;60.010;30.406;2022-08-11T08:59:00;9.32;;;2.28;;
42768;SDS011;28423;60.010;30.406;2022-08-11T09:01:32;3.60;;;1.65;;
42768;SDS011;28423;60.010;30.406;2022-08-11T09:04:02;3.80;;;1.70;;
42768;SDS011;28423;60.010;30.406;2022-08-11T09:06:32;4.60;;;1.75;;
42768;SDS011;28423;60.010;30.406;2022-08-11T09:08:58;4.78;;;1.65;;
42768;SDS011;28423;60.010;30.406;2022-08-11T09:11:24;4.25;;;1.48;;
42768;SDS011;28423;60.010;30.406;2022-08-11T09:14:08;4.45;;;1.65;;
42768;SDS011;28423;60.010;30.406;2022-08-11T09:16:34;4.25;;;1.50;;
42768;SDS011;28423;60.010;30.406;2022-08-11T09:19:01;2.75;;;1.65;;
42768;SDS011;28423;60.010;30.406;2022-08-11T09:21:27;6.25;;;1.77;;
42768;SDS011;28423;60.010;30.406;2022-08-11T09:23:53;6.97;;;1.88;;
42768;SDS011;28423;60.010;30.406;2022-08-11T09:26:38;3.35;;;1.50;;
42768;SDS011;28423;60.010;30.406;2022-08-11T09:29:23;7.22;;;2.03;;
42768;SDS011;28423;60.010;30.406;2022-08-11T09:31:51;9.88;;;3.80;;
42768;SDS011;28423;60.010;30.406;2022-08-11T09:34:17;5.03;;;2.70;;
42768;SDS011;28423;60.010;30.406;2022-08-11T09:36:43;3.58;;;1.90;;
42768;SDS011;28423;60.010;30.406;2022-08-11T09:39:28;7.93;;;2.00;;
42768;SDS011;28423;60.010;30.406;2022-08-11T09:42:14;2.15;;;1.60;;
42768;SDS011;28423;60.010;30.406;2022-08-11T09:44:39;4.68;;;1.80;;
42768;SDS011;28423;60.010;30.406;2022-08-11T09:47:27;3.72;;;1.50;;
42768;SDS011;28423;60.010;30.406;2022-08-11T09:49:55;5.93;;;2.00;;
42768;SDS011;28423;60.010;30.406;2022-08-11T09:52:24;2.97;;;1.67;;
42768;SDS011;28423;60.010;30.406;2022-08-11T09:54:49;3.65;;;1.40;;
42768;SDS011;28423;60.010;30.406;2022-08-11T09:57:19;3.40;;;1.88;;
42768;SDS011;28423;60.010;30.406;2022-08-11T10:00:18;4.63;;;1.80;;
42768;SDS011;28423;60.010;30.406;2022-08-11T10:02:46;3.70;;;1.73;;
42768;SDS011;28423;60.010;30.406;2022-08-11T10:05:14;3.70;;;1.92;;
42768;SDS011;28423;60.010;30.406;2022-08-11T10:08:01;3.70;;;1.70;;
42768;SDS011;28423;60.010;30.406;2022-08-11T10:10:27;8.25;;;1.80;;
42768;SDS011;28423;60.010;30.406;2022-08-11T10:12:56;6.50;;;1.58;;
42768;SDS011;28423;60.010;30.406;2022-08-11T10:15:24;2.20;;;1.50;;
42768;SDS011;28423;60.010;30.406;2022-08-11T10:18:10;5.55;;;1.73;;
42768;SDS011;28423;60.010;30.406;2022-08-11T10:20:59;4.00;;;1.60;;
42768;SDS011;28423;60.010;30.406;2022-08-11T10:23:28;5.25;;;1.83;;
42768;SDS011;28423;60.010;30.406;2022-08-11T10:26:14;6.53;;;1.73;;
42768;SDS011;28423;60.010;30.406;2022-08-11T10:28:59;5.72;;;2.67;;
42768;SDS011;28423;60.010;30.406;2022-08-11T10:31:25;4.35;;;3.00;;
42768;SDS011;28423;60.010;30.406;2022-08-11T10:34:09;2.40;;;1.40;;
42768;SDS011;28423;60.010;30.406;2022-08-11T10:36:36;8.95;;;1.20;;
42768;SDS011;28423;60.010;30.406;2022-08-11T10:39:08;3.17;;;1.58;;
42768;SDS011;28423;60.010;30.406;2022-08-11T10:41:36;4.65;;;1.65;;
42768;SDS011;28423;60.010;30.406;2022-08-11T10:44:20;2.55;;;1.70;;
42768;SDS011;28423;60.010;30.406;2022-08-11T10:46:46;6.38;;;1.60;;
42768;SDS011;28423;60.010;30.406;2022-08-11T10:49:30;5.90;;;2.38;;
42768;SDS011;28423;60.010;30.406;2022-08-11T10:51:56;2.53;;;1.50;;
42768;SDS011;28423;60.010;30.406;2022-08-11T10:54:41;3.72;;;1.67;;
42768;SDS011;28423;60.010;30.406;2022-08-11T10:57:26;2.90;;;1.65;;
42768;SDS011;28423;60.010;30.406;2022-08-11T11:00:11;4.55;;;2.70;;
42768;SDS011;28423;60.010;30.406;2022-08-11T11:02:43;4.10;;;1.30;;
42768;SDS011;28423;60.010;30.406;2022-08-11T11:05:23;4.03;;;1.90;;
42768;SDS011;28423;60.010;30.406;2022-08-11T11:08:00;3.37;;;1.97;;
42768;SDS011;28423;60.010;30.406;2022-08-11T11:10:54;6.00;;;2.22;;
42768;SDS011;28423;60.010;30.406;2022-08-11T11:13:20;4.85;;;1.52;;
42768;SDS011;28423;60.010;30.406;2022-08-11T11:16:06;5.45;;;2.22;;
42768;SDS011;28423;60.010;30.406;2022-08-11T11:18:52;4.53;;;1.48;;
42768;SDS011;28423;60.010;30.406;2022-08-11T11:21:18;5.10;;;1.63;;
42768;SDS011;28423;60.010;30.406;2022-08-11T11:26:50;4.68;;;1.30;;
42768;SDS011;28423;60.010;30.406;2022-08-11T11:37:40;5.32;;;1.80;;
42768;SDS011;28423;60.010;30.406;2022-08-11T11:40:12;4.47;;;1.67;;
42768;SDS011;28423;60.010;30.406;2022-08-11T11:42:43;6.53;;;1.80;;
42768;SDS011;28423;60.010;30.406;2022-08-11T11:45:10;9.25;;;1.50;;
42768;SDS011;28423;60.010;30.406;2022-08-11T11:47:37;2.38;;;1.45;;
42768;SDS011;28423;60.010;30.406;2022-08-11T11:50:06;5.60;;;1.88;;
42768;SDS011;28423;60.010;30.406;2022-08-11T11:52:32;6.78;;;2.03;;
42768;SDS011;28423;60.010;30.406;2022-08-11T11:54:59;6.60;;;1.73;;
42768;SDS011;28423;60.010;30.406;2022-08-11T11:57:24;7.43;;;1.80;;
42768;SDS011;28423;60.010;30.406;2022-08-11T12:00:10;7.32;;;1.48;;
42768;SDS011;28423;60.010;30.406;2022-08-11T12:02:55;2.00;;;1.10;;
42768;SDS011;28423;60.010;30.406;2022-08-11T12:05:24;5.03;;;1.83;;
42768;SDS011;28423;60.010;30.406;2022-08-11T12:07:51;1.85;;;1.10;;
42768;SDS011;28423;60.010;30.406;2022-08-11T12:10:37;3.40;;;1.30;;
42768;SDS011;28423;60.010;30.406;2022-08-11T12:13:04;5.82;;;1.40;;
42768;SDS011;28423;60.010;30.406;2022-08-11T12:15:48;4.30;;;1.52;;
42768;SDS011;28423;60.010;30.406;2022-08-11T12:18:15;2.92;;;1.30;;
42768;SDS011;28423;60.010;30.406;2022-08-11T12:20:41;5.03;;;1.40;;
42768;SDS011;28423;60.010;30.406;2022-08-11T12:23:07;3.92;;;1.45;;
42768;SDS011;28423;60.010;30.406;2022-08-11T12:25:52;2.00;;;1.23;;
42768;SDS011;28423;60.010;30.406;2022-08-11T12:28:36;5.57;;;2.13;;
42768;SDS011;28423;60.010;30.406;2022-08-11T12:31:04;3.55;;;1.63;;
42768;SDS011;28423;60.010;30.406;2022-08-11T12:33:30;3.25;;;1.00;;
42768;SDS011;28423;60.010;30.406;2022-08-11T12:35:57;9.18;;;2.22;;
42768;SDS011;28423;60.010;30.406;2022-08-11T12:38:23;7.30;;;1.30;;
42768;SDS011;28423;60.010;30.406;2022-08-11T12:40:50;4.03;;;1.13;;
42768;SDS011;28423;60.010;30.406;2022-08-11T12:43:35;1.88;;;1.02;;
42768;SDS011;28423;60.010;30.406;2022-08-11T12:46:24;10.32;;;1.25;;
42768;SDS011;28423;60.010;30.406;2022-08-11T12:48:56;3.38;;;1.33;;
42768;SDS011;28423;60.010;30.406;2022-08-11T12:51:55;5.93;;;1.55;;
42768;SDS011;28423;60.010;30.406;2022-08-11T12:54:33;3.65;;;1.70;;
42768;SDS011;28423;60.010;30.406;2022-08-11T12:57:16;8.00;;;1.77;;
42768;SDS011;28423;60.010;30.406;2022-08-11T13:00:04;4.93;;;1.40;;
42768;SDS011;28423;60.010;30.406;2022-08-11T13:02:49;2.97;;;1.17;;
42768;SDS011;28423;60.010;30.406;2022-08-11T13:05:34;9.45;;;1.63;;
42768;SDS011;28423;60.010;30.406;2022-08-11T13:08:01;3.65;;;1.80;;
42768;SDS011;28423;60.010;30.406;2022-08-11T13:10:27;6.22;;;1.58;;
42768;SDS011;28423;60.010;30.406;2022-08-11T13:13:12;4.22;;;1.80;;
42768;SDS011;28423;60.010;30.406;2022-08-11T13:15:39;3.92;;;1.60;;
42768;SDS011;28423;60.010;30.406;2022-08-11T13:18:05;6.05;;;1.30;;
42768;SDS011;28423;60.010;30.406;2022-08-11T13:20:33;1.90;;;1.30;;
42768;SDS011;28423;60.010;30.406;2022-08-11T13:22:59;6.57;;;1.38;;
42768;SDS011;28423;60.010;30.406;2022-08-11T13:25:26;7.90;;;1.77;;
42768;SDS011;28423;60.010;30.406;2022-08-11T13:27:55;4.78;;;1.48;;
42768;SDS011;28423;60.010;30.406;2022-08-11T13:30:24;6.30;;;1.58;;
42768;SDS011;28423;60.010;30.406;2022-08-11T13:33:09;2.95;;;1.33;;
42768;SDS011;28423;60.010;30.406;2022-08-11T13:35:35;3.75;;;1.27;;
42768;SDS011;28423;60.010;30.406;2022-08-11T13:38:01;4.82;;;1.60;;
42768;SDS011;28423;60.010;30.406;2022-08-11T13:40:28;5.30;;;1.23;;
42768;SDS011;28423;60.010;30.406;2022-08-11T13:42:55;4.53;;;1.30;;
42768;SDS011;28423;60.010;30.406;2022-08-11T13:45:23;6.05;;;1.38;;
42768;SDS011;28423;60.010;30.406;2022-08-11T13:47:50;3.65;;;1.20;;
42768;SDS011;28423;60.010;30.406;2022-08-11T13:50:17;7.40;;;1.42;;
42768;SDS011;28423;60.010;30.406;2022-08-11T13:52:43;5.93;;;1.30;;
42768;SDS011;28423;60.010;30.406;2022-08-11T13:55:11;3.90;;;1.40;;
42768;SDS011;28423;60.010;30.406;2022-08-11T13:57:50;3.92;;;1.58;;
42768;SDS011;28423;60.010;30.406;2022-08-11T14:00:16;3.97;;;1.30;;
42768;SDS011;28423;60.010;30.406;2022-08-11T14:02:43;3.60;;;1.40;;
42768;SDS011;28423;60.010;30.406;2022-08-11T14:05:21;6.20;;;1.42;;
42768;SDS011;28423;60.010;30.406;2022-08-11T14:07:51;2.30;;;1.27;;
42768;SDS011;28423;60.010;30.406;2022-08-11T14:10:21;7.68;;;1.50;;
42768;SDS011;28423;60.010;30.406;2022-08-11T14:12:58;4.38;;;1.33;;
42768;SDS011;28423;60.010;30.406;2022-08-11T14:15:45;4.60;;;1.65;;
42768;SDS011;28423;60.010;30.406;2022-08-11T14:18:16;2.72;;;1.30;;
42768;SDS011;28423;60.010;30.406;2022-08-11T14:20:41;4.85;;;1.40;;
42768;SDS011;28423;60.010;30.406;2022-08-11T14:23:27;7.20;;;1.52;;
42768;SDS011;28423;60.010;30.406;2022-08-11T14:25:55;2.47;;;0.93;;
42768;SDS011;28423;60.010;30.406;2022-08-11T14:28:40;3.97;;;1.30;;
42768;SDS011;28423;60.010;30.406;2022-08-11T14:31:06;2.53;;;1.30;;
42768;SDS011;28423;60.010;30.406;2022-08-11T14:33:32;3.78;;;1.13;;
42768;SDS011;28423;60.010;30.406;2022-08-11T14:36:01;7.25;;;1.40;;
42768;SDS011;28423;60.010;30.406;2022-08-11T14:38:27;6.40;;;1.25;;
42768;SDS011;28423;60.010;30.406;2022-08-11T14:40:52;9.30;;;1.50;;
42768;SDS011;28423;60.010;30.406;2022-08-11T14:43:37;9.60;;;2.75;;
42768;SDS011;28423;60.010;30.406;2022-08-11T14:46:21;4.00;;;1.17;;
42768;SDS011;28423;60.010;30.406;2022-08-11T14:49:05;2.63;;;1.63;;
42768;SDS011;28423;60.010;30.406;2022-08-11T14:51:31;3.95;;;1.50;;
42768;SDS011;28423;60.010;30.406;2022-08-11T14:53:58;3.38;;;1.80;;
42768;SDS011;28423;60.010;30.406;2022-08-11T14:56:43;2.13;;;1.33;;
42768;SDS011;28423;60.010;30.406;2022-08-11T14:59:10;6.47;;;1.33;;
42768;SDS011;28423;60.010;30.406;2022-08-11T15:01:36;7.53;;;2.60;;
42768;SDS011;28423;60.010;30.406;2022-08-11T15:04:21;7.75;;;1.52;;
42768;SDS011;28423;60.010;30.406;2022-08-11T15:06:47;2.90;;;1.20;;
42768;SDS011;28423;60.010;30.406;2022-08-11T15:09:13;4.15;;;1.60;;
42768;SDS011;28423;60.010;30.406;2022-08-11T15:11:39;4.38;;;1.58;;
42768;SDS011;28423;60.010;30.406;2022-08-11T15:14:23;3.15;;;1.45;;
42768;SDS011;28423;60.010;30.406;2022-08-11T15:17:08;9.45;;;1.95;;
42768;SDS011;28423;60.010;30.406;2022-08-11T15:19:39;5.72;;;1.58;;
42768;SDS011;28423;60.010;30.406;2022-08-11T15:22:28;5.10;;;1.50;;
42768;SDS011;28423;60.010;30.406;2022-08-11T15:25:12;3.97;;;1.58;;
42768;SDS011;28423;60.010;30.406;2022-08-11T15:27:39;2.97;;;1.35;;
42768;SDS011;28423;60.010;30.406;2022-08-11T15:30:24;8.60;;;1.77;;
42768;SDS011;28423;60.010;30.406;2022-08-11T15:33:08;4.72;;;1.42;;
42768;SDS011;28423;60.010;30.406;2022-08-11T15:35:54;3.80;;;1.70;;
42768;SDS011;28423;60.010;30.406;2022-08-11T15:38:41;4.97;;;1.38;;
42768;SDS011;28423;60.010;30.406;2022-08-11T15:41:09;3.72;;;1.50;;
42768;SDS011;28423;60.010;30.406;2022-08-11T15:43:57;7.35;;;2.20;;
42768;SDS011;28423;60.010;30.406;2022-08-11T15:46:46;5.90;;;1.92;;
42768;SDS011;28423;60.010;30.406;2022-08-11T15:49:14;10.50;;;2.40;;
42768;SDS011;28423;60.010;30.406;2022-08-11T15:54:42;3.50;;;1.10;;
42768;SDS011;28423;60.010;30.406;2022-08-11T15:57:10;4.07;;;1.20;;
42768;SDS011;28423;60.010;30.406;2022-08-11T16:00:03;5.47;;;1.30;;
42768;SDS011;28423;60.010;30.406;2022-08-11T16:02:49;4.38;;;1.42;;
42768;SDS011;28423;60.010;30.406;2022-08-11T16:05:21;5.22;;;2.33;;
42768;SDS011;28423;60.010;30.406;2022-08-11T16:07:48;3.63;;;1.60;;
42768;SDS011;28423;60.010;30.406;2022-08-11T16:10:16;4.30;;;1.65;;
42768;SDS011;28423;60.010;30.406;2022-08-11T16:15:49;4.20;;;1.40;;
42768;SDS011;28423;60.010;30.406;2022-08-11T16:18:37;9.57;;;1.77;;
42768;SDS011;28423;60.010;30.406;2022-08-11T16:21:09;8.02;;;2.05;;
42768;SDS011;28423;60.010;30.406;2022-08-11T16:23:37;10.48;;;2.10;;
42768;SDS011;28423;60.010;30.406;2022-08-11T16:26:05;7.80;;;1.67;;
42768;SDS011;28423;60.010;30.406;2022-08-11T16:28:30;4.40;;;1.60;;
42768;SDS011;28423;60.010;30.406;2022-08-11T16:30:58;8.48;;;1.83;;
42768;SDS011;28423;60.010;30.406;2022-08-11T16:33:25;9.52;;;1.90;;
42768;SDS011;28423;60.010;30.406;2022-08-11T16:35:51;6.32;;;1.90;;
42768;SDS011;28423;60.010;30.406;2022-08-11T16:38:37;4.95;;;1.63;;
42768;SDS011;28423;60.010;30.406;2022-08-11T16:41:05;9.55;;;2.60;;
42768;SDS011;28423;60.010;30.406;2022-08-11T16:43:34;4.43;;;1.75;;
42768;SDS011;28423;60.010;30.406;2022-08-11T16:46:23;5.68;;;2.50;;
42768;SDS011;28423;60.010;30.406;2022-08-11T16:49:51;6.07;;;2.20;;
42768;SDS011;28423;60.010;30.406;2022-08-11T16:52:07;5.82;;;2.35;;
42768;SDS011;28423;60.010;30.406;2022-08-11T16:54:36;5.05;;;1.95;;
42768;SDS011;28423;60.010;30.406;2022-08-11T16:57:06;5.85;;;2.05;;
42768;SDS011;28423;60.010;30.406;2022-08-11T16:59:52;6.53;;;2.13;;
42768;SDS011;28423;60.010;30.406;2022-08-11T17:02:19;3.97;;;1.70;;
42768;SDS011;28423;60.010;30.406;2022-08-11T17:05:13;2.85;;;1.65;;
42768;SDS011;28423;60.010;30.406;2022-08-11T17:08:00;7.57;;;2.40;;
42768;SDS011;28423;60.010;30.406;2022-08-11T17:10:52;3.92;;;1.90;;
42768;SDS011;28423;60.010;30.406;2022-08-11T17:13:47;6.57;;;1.67;;
42768;SDS011;28423;60.010;30.406;2022-08-11T17:16:21;7.15;;;1.80;;
42768;SDS011;28423;60.010;30.406;2022-08-11T17:21:46;4.50;;;1.75;;
42768;SDS011;28423;60.010;30.406;2022-08-11T17:24:32;7.60;;;1.95;;
42768;SDS011;28423;60.010;30.406;2022-08-11T17:27:00;6.05;;;2.05;;
42768;SDS011;28423;60.010;30.406;2022-08-11T17:29:31;3.22;;;1.90;;
42768;SDS011;28423;60.010;30.406;2022-08-11T17:32:15;4.38;;;1.70;;
42768;SDS011;28423;60.010;30.406;2022-08-11T17:35:08;9.45;;;2.30;;
42768;SDS011;28423;60.010;30.406;2022-08-11T17:37:55;3.60;;;1.60;;
42768;SDS011;28423;60.010;30.406;2022-08-11T17:40:23;9.57;;;2.22;;
42768;SDS011;28423;60.010;30.406;2022-08-11T17:42:51;8.23;;;2.38;;
42768;SDS011;28423;60.010;30.406;2022-08-11T17:45:40;8.77;;;3.45;;
42768;SDS011;28423;60.010;30.406;2022-08-11T17:48:26;4.07;;;1.80;;
42768;SDS011;28423;60.010;30.406;2022-08-11T17:51:07;3.60;;;1.90;;
42768;SDS011;28423;60.010;30.406;2022-08-11T17:56:26;5.85;;;2.30;;
42768;SDS011;28423;60.010;30.406;2022-08-11T17:59:11;5.72;;;2.75;;
42768;SDS011;28423;60.010;30.406;2022-08-11T18:01:57;8.52;;;1.80;;
42768;SDS011;28423;60.010;30.406;2022-08-11T18:04:46;3.47;;;1.85;;
42768;SDS011;28423;60.010;30.406;2022-08-11T18:07:15;9.55;;;2.22;;
42768;SDS011;28423;60.010;30.406;2022-08-11T18:10:04;6.50;;;1.88;;
42768;SDS011;28423;60.010;30.406;2022-08-11T18:12:51;4.63;;;1.90;;
42768;SDS011;28423;60.010;30.406;2022-08-11T18:15:39;9.52;;;2.13;;
42768;SDS011;28423;60.010;30.406;2022-08-11T18:18:24;4.32;;;1.92;;
42768;SDS011;28423;60.010;30.406;2022-08-11T18:21:10;4.40;;;2.25;;
42768;SDS011;28423;60.010;30.406;2022-08-11T18:23:56;4.97;;;2.00;;
42768;SDS011;28423;60.010;30.406;2022-08-11T18:26:41;7.68;;;2.22;;
42768;SDS011;28423;60.010;30.406;2022-08-11T18:29:27;5.80;;;2.25;;
42768;SDS011;28423;60.010;30.406;2022-08-11T18:32:13;4.60;;;1.85;;
42768;SDS011;28423;60.010;30.406;2022-08-11T18:34:58;8.70;;;2.50;;
42768;SDS011;28423;60.010;30.406;2022-08-11T18:37:42;6.38;;;1.98;;
42768;SDS011;28423;60.010;30.406;2022-08-11T18:40:29;8.10;;;2.20;;
42768;SDS011;28423;60.010;30.406;2022-08-11T18:43:13;7.10;;;2.58;;
42768;SDS011;28423;60.010;30.406;2022-08-11T18:46:00;2.85;;;1.80;;
42768;SDS011;28423;60.010;30.406;2022-08-11T18:48:49;9.15;;;2.20;;
42768;SDS011;28423;60.010;30.406;2022-08-11T18:51:36;4.53;;;2.10;;
42768;SDS011;28423;60.010;30.406;2022-08-11T18:54:21;6.13;;;2.08;;
42768;SDS011;28423;60.010;30.406;2022-08-11T18:57:07;4.78;;;2.13;;
42768;SDS011;28423;60.010;30.406;2022-08-11T18:59:52;10.38;;;5.50;;
42768;SDS011;28423;60.010;30.406;2022-08-11T19:02:38;5.07;;;2.03;;
42768;SDS011;28423;60.010;30.406;2022-08-11T19:05:23;8.02;;;3.20;;
42768;SDS011;28423;60.010;30.406;2022-08-11T19:08:09;9.13;;;2.60;;